sensor_id;sensor_type;location;lat;lon;timestamp;pressure;altitude;pressure_sealevel;temperature;humidity
6216;BME280;3141;49.234;9.326;2023-01-30T00:00:18;100352.91;;;2.46;70.44
6216;BME280;3141;49.234;9.326;2023-01-30T00:01:04;100348.81;;;2.56;70.41
6216;BME280;3141;49.234;9.326;2023-01-30T00:01:47;100353.03;;;2.59;70.27
6216;BME280;3141;49.234;9.326;2023-01-30T00:02:29;100352.84;;;2.62;69.98
6216;BME280;3141;49.234;9.326;2023-01-30T00:03:11;100352.66;;;2.65;70.07
6216;BME280;3141;49.234;9.326;2023-01-30T00:03:54;100352.06;;;2.46;70.38
6216;BME280;3141;49.234;9.326;2023-01-30T00:04:36;100346.31;;;2.55;69.87
6216;BME280;3141;49.234;9.326;2023-01-30T00:05:19;100361.22;;;2.53;70.22
6216;BME280;3141;49.234;9.326;2023-01-30T00:06:01;100344.56;;;2.55;70.05
6216;BME280;3141;49.234;9.326;2023-01-30T00:06:43;100356.03;;;2.67;70.25
6216;BME280;3141;49.234;9.326;2023-01-30T00:07:25;100345.94;;;2.61;70.07
6216;BME280;3141;49.234;9.326;2023-01-30T00:08:08;100345.22;;;2.59;70.40
6216;BME280;3141;49.234;9.326;2023-01-30T00:08:51;100337.19;;;2.62;70.07
6216;BME280;3141;49.234;9.326;2023-01-30T00:09:33;100337.19;;;2.62;70.03
6216;BME280;3141;49.234;9.326;2023-01-30T00:10:16;100337.91;;;2.50;70.05
6216;BME280;3141;49.234;9.326;2023-01-30T00:11:03;100335.56;;;2.45;70.77
6216;BME280;3141;49.234;9.326;2023-01-30T00:11:46;100338.28;;;2.58;70.43
6216;BME280;3141;49.234;9.326;2023-01-30T00:12:28;100338.38;;;2.56;70.21
6216;BME280;3141;49.234;9.326;2023-01-30T00:13:11;100334.38;;;2.51;70.95
6216;BME280;3141;49.234;9.326;2023-01-30T00:13:53;100334.22;;;2.54;70.64
6216;BME280;3141;49.234;9.326;2023-01-30T00:14:35;100328.03;;;2.55;70.30
6216;BME280;3141;49.234;9.326;2023-01-30T00:15:17;100321.22;;;2.52;70.74
6216;BME280;3141;49.234;9.326;2023-01-30T00:16:00;100324.59;;;2.54;70.08
6216;BME280;3141;49.234;9.326;2023-01-30T00:16:43;100321.41;;;2.49;70.68
6216;BME280;3141;49.234;9.326;2023-01-30T00:17:25;100323.09;;;2.50;70.78
6216;BME280;3141;49.234;9.326;2023-01-30T00:18:08;100327.09;;;2.56;70.59
6216;BME280;3141;49.234;9.326;2023-01-30T00:18:50;100325.06;;;2.47;71.03
6216;BME280;3141;49.234;9.326;2023-01-30T00:19:33;100329.00;;;2.54;70.62
6216;BME280;3141;49.234;9.326;2023-01-30T00:20:15;100328.31;;;2.50;70.46
6216;BME280;3141;49.234;9.326;2023-01-30T00:20:59;100340.16;;;2.56;70.45
6216;BME280;3141;49.234;9.326;2023-01-30T00:21:42;100337.25;;;2.46;71.11
6216;BME280;3141;49.234;9.326;2023-01-30T00:22:24;100338.91;;;2.47;70.98
6216;BME280;3141;49.234;9.326;2023-01-30T00:23:06;100345.50;;;2.38;71.15
6216;BME280;3141;49.234;9.326;2023-01-30T00:23:49;100347.88;;;2.43;71.45
6216;BME280;3141;49.234;9.326;2023-01-30T00:24:31;100351.16;;;2.47;71.19
6216;BME280;3141;49.234;9.326;2023-01-30T00:25:13;100349.09;;;2.52;70.54
6216;BME280;3141;49.234;9.326;2023-01-30T00:25:56;100360.56;;;2.49;71.06
6216;BME280;3141;49.234;9.326;2023-01-30T00:26:38;100359.88;;;2.46;70.99
6216;BME280;3141;49.234;9.326;2023-01-30T00:27:20;100363.34;;;2.46;71.44
6216;BME280;3141;49.234;9.326;2023-01-30T00:28:03;100373.13;;;2.43;70.85
6216;BME280;3141;49.234;9.326;2023-01-30T00:28:45;100367.56;;;2.33;71.53
6216;BME280;3141;49.234;9.326;2023-01-30T00:29:27;100369.56;;;2.44;71.52
6216;BME280;3141;49.234;9.326;2023-01-30T00:30:10;100369.47;;;2.45;71.08
6216;BME280;3141;49.234;9.326;2023-01-30T00:30:54;100371.44;;;2.42;71.05
6216;BME280;3141;49.234;9.326;2023-01-30T00:31:36;100377.47;;;2.42;71.42
6216;BME280;3141;49.234;9.326;2023-01-30T00:32:18;100371.25;;;2.45;71.11
6216;BME280;3141;49.234;9.326;2023-01-30T00:33:01;100372.72;;;2.34;71.25
6216;BME280;3141;49.234;9.326;2023-01-30T00:33:43;100379.69;;;2.34;71.31
6216;BME280;3141;49.234;9.326;2023-01-30T00:34:25;100382.03;;;2.38;71.43
6216;BME280;3141;49.234;9.326;2023-01-30T00:35:08;100391.09;;;2.47;70.83
6216;BME280;3141;49.234;9.326;2023-01-30T00:35:51;100383.72;;;2.40;71.44
6216;BME280;3141;49.234;9.326;2023-01-30T00:36:34;100383.81;;;2.38;71.21
6216;BME280;3141;49.234;9.326;2023-01-30T00:37:16;100384.72;;;2.37;71.68
6216;BME280;3141;49.234;9.326;2023-01-30T00:37:59;100392.47;;;2.38;71.59
6216;BME280;3141;49.234;9.326;2023-01-30T00:38:41;100390.09;;;2.50;71.21
6216;BME280;3141;49.234;9.326;2023-01-30T00:39:24;100395.72;;;2.58;71.04
6216;BME280;3141;49.234;9.326;2023-01-30T00:40:07;100400.72;;;2.47;70.70
6216;BME280;3141;49.234;9.326;2023-01-30T00:40:49;100397.69;;;2.38;71.33
6216;BME280;3141;49.234;9.326;2023-01-30T00:41:32;100400.72;;;2.47;71.22
6216;BME280;3141;49.234;9.326;2023-01-30T00:42:32;100399.19;;;2.43;70.81
6216;BME280;3141;49.234;9.326;2023-01-30T00:43:33;100394.84;;;2.43;71.34
6216;BME280;3141;49.234;9.326;2023-01-30T00:44:34;100389.25;;;2.49;71.07
6216;BME280;3141;49.234;9.326;2023-01-30T00:45:37;100393.41;;;2.38;71.52
6216;BME280;3141;49.234;9.326;2023-01-30T00:46:39;100386.41;;;2.54;71.30
6216;BME280;3141;49.234;9.326;2023-01-30T00:47:39;100382.22;;;2.35;71.48
6216;BME280;3141;49.234;9.326;2023-01-30T00:48:22;100393.63;;;2.49;71.40
6216;BME280;3141;49.234;9.326;2023-01-30T00:49:04;100393.47;;;2.52;70.46
6216;BME280;3141;49.234;9.326;2023-01-30T00:49:47;100392.63;;;2.51;71.40
6216;BME280;3141;49.234;9.326;2023-01-30T00:50:29;100385.06;;;2.47;71.08
6216;BME280;3141;49.234;9.326;2023-01-30T00:51:23;100390.50;;;2.58;71.15
6216;BME280;3141;49.234;9.326;2023-01-30T00:52:05;100393.59;;;2.64;70.40
6216;BME280;3141;49.234;9.326;2023-01-30T00:52:48;100385.22;;;2.44;71.51
6216;BME280;3141;49.234;9.326;2023-01-30T00:53:30;100381.69;;;2.45;71.32
6216;BME280;3141;49.234;9.326;2023-01-30T00:54:12;100384.69;;;2.53;70.91
6216;BME280;3141;49.234;9.326;2023-01-30T00:54:55;100376.53;;;2.59;71.11
6216;BME280;3141;49.234;9.326;2023-01-30T00:55:37;100383.00;;;2.67;70.73
6216;BME280;3141;49.234;9.326;2023-01-30T00:56:20;100373.75;;;2.62;70.66
6216;BME280;3141;49.234;9.326;2023-01-30T00:57:02;100377.47;;;2.42;71.22
6216;BME280;3141;49.234;9.326;2023-01-30T00:57:45;100383.84;;;2.52;71.05
6216;BME280;3141;49.234;9.326;2023-01-30T00:58:27;100381.28;;;2.36;71.87
6216;BME280;3141;49.234;9.326;2023-01-30T00:59:09;100378.72;;;2.51;71.57
6216;BME280;3141;49.234;9.326;2023-01-30T00:59:51;100378.47;;;2.55;71.34
6216;BME280;3141;49.234;9.326;2023-01-30T01:00:34;100372.63;;;2.66;70.85
6216;BME280;3141;49.234;9.326;2023-01-30T01:01:17;100374.84;;;2.58;71.05
6216;BME280;3141;49.234;9.326;2023-01-30T01:01:59;100377.44;;;2.58;71.13
6216;BME280;3141;49.234;9.326;2023-01-30T01:02:41;100370.41;;;2.44;71.39
6216;BME280;3141;49.234;9.326;2023-01-30T01:03:24;100382.59;;;2.44;71.74
6216;BME280;3141;49.234;9.326;2023-01-30T01:04:07;100380.38;;;2.38;72.22
6216;BME280;3141;49.234;9.326;2023-01-30T01:04:51;100374.25;;;2.53;71.23
6216;BME280;3141;49.234;9.326;2023-01-30T01:05:33;100374.00;;;2.57;71.51
6216;BME280;3141;49.234;9.326;2023-01-30T01:06:16;100378.09;;;2.61;70.94
6216;BME280;3141;49.234;9.326;2023-01-30T01:06:58;100376.44;;;2.60;70.98
6216;BME280;3141;49.234;9.326;2023-01-30T01:07:40;100363.28;;;2.62;71.00
6216;BME280;3141;49.234;9.326;2023-01-30T01:08:22;100358.84;;;2.64;71.15
6216;BME280;3141;49.234;9.326;2023-01-30T01:09:05;100359.75;;;2.63;71.32
6216;BME280;3141;49.234;9.326;2023-01-30T01:09:48;100347.16;;;2.55;71.19
6216;BME280;3141;49.234;9.326;2023-01-30T01:10:31;100363.06;;;2.51;71.42
6216;BME280;3141;49.234;9.326;2023-01-30T01:11:13;100359.34;;;2.55;71.94
6216;BME280;3141;49.234;9.326;2023-01-30T01:12:05;100355.00;;;2.55;71.20
6216;BME280;3141;49.234;9.326;2023-01-30T01:12:48;100354.00;;;2.42;71.79
6216;BME280;3141;49.234;9.326;2023-01-30T01:13:31;100355.03;;;2.69;71.27
6216;BME280;3141;49.234;9.326;2023-01-30T01:14:13;100349.53;;;2.74;70.72
6216;BME280;3141;49.234;9.326;2023-01-30T01:14:56;100362.19;;;2.80;70.64
6216;BME280;3141;49.234;9.326;2023-01-30T01:15:38;100353.84;;;2.89;70.59
6216;BME280;3141;49.234;9.326;2023-01-30T01:16:21;100355.66;;;2.73;70.49
6216;BME280;3141;49.234;9.326;2023-01-30T01:17:04;100356.63;;;2.86;70.74
6216;BME280;3141;49.234;9.326;2023-01-30T01:17:46;100353.75;;;2.90;70.88
6216;BME280;3141;49.234;9.326;2023-01-30T01:18:29;100367.38;;;2.95;70.14
6216;BME280;3141;49.234;9.326;2023-01-30T01:19:11;100362.31;;;2.78;70.73
6216;BME280;3141;49.234;9.326;2023-01-30T01:19:53;100363.81;;;2.82;70.38
6216;BME280;3141;49.234;9.326;2023-01-30T01:20:35;100365.16;;;3.03;70.66
6216;BME280;3141;49.234;9.326;2023-01-30T01:21:19;100366.22;;;2.85;70.10
6216;BME280;3141;49.234;9.326;2023-01-30T01:22:01;100358.81;;;2.93;70.78
6216;BME280;3141;49.234;9.326;2023-01-30T01:22:44;100356.75;;;2.98;70.52
6216;BME280;3141;49.234;9.326;2023-01-30T01:23:26;100359.91;;;2.89;70.22
6216;BME280;3141;49.234;9.326;2023-01-30T01:24:11;100362.06;;;2.83;70.84
6216;BME280;3141;49.234;9.326;2023-01-30T01:24:54;100361.53;;;2.76;71.62
6216;BME280;3141;49.234;9.326;2023-01-30T01:25:36;100362.31;;;2.92;70.83
6216;BME280;3141;49.234;9.326;2023-01-30T01:26:19;100360.75;;;3.04;70.50
6216;BME280;3141;49.234;9.326;2023-01-30T01:27:01;100353.41;;;3.24;69.89
6216;BME280;3141;49.234;9.326;2023-01-30T01:27:44;100355.91;;;2.98;70.13
6216;BME280;3141;49.234;9.326;2023-01-30T01:28:27;100355.13;;;2.82;70.74
6216;BME280;3141;49.234;9.326;2023-01-30T01:29:12;100350.31;;;2.90;70.86
6216;BME280;3141;49.234;9.326;2023-01-30T01:29:54;100352.53;;;2.96;70.97
6216;BME280;3141;49.234;9.326;2023-01-30T01:30:37;100342.56;;;3.02;70.57
6216;BME280;3141;49.234;9.326;2023-01-30T01:31:19;100343.06;;;3.09;70.22
6216;BME280;3141;49.234;9.326;2023-01-30T01:32:02;100342.00;;;3.11;70.03
6216;BME280;3141;49.234;9.326;2023-01-30T01:32:44;100332.97;;;3.03;70.56
6216;BME280;3141;49.234;9.326;2023-01-30T01:33:27;100331.09;;;2.91;70.79
6216;BME280;3141;49.234;9.326;2023-01-30T01:34:10;100328.84;;;2.99;70.39
6216;BME280;3141;49.234;9.326;2023-01-30T01:34:52;100321.97;;;2.98;70.25
6216;BME280;3141;49.234;9.326;2023-01-30T01:35:39;100321.09;;;2.83;71.41
6216;BME280;3141;49.234;9.326;2023-01-30T01:36:21;100315.88;;;2.83;71.02
6216;BME280;3141;49.234;9.326;2023-01-30T01:37:04;100314.31;;;2.95;70.70
6216;BME280;3141;49.234;9.326;2023-01-30T01:37:46;100312.25;;;3.00;70.53
6216;BME280;3141;49.234;9.326;2023-01-30T01:38:28;100314.13;;;2.98;70.30
6216;BME280;3141;49.234;9.326;2023-01-30T01:39:11;100316.75;;;3.12;70.43
6216;BME280;3141;49.234;9.326;2023-01-30T01:39:53;100308.81;;;2.99;70.13
6216;BME280;3141;49.234;9.326;2023-01-30T01:41:16;100306.59;;;2.93;70.85
6216;BME280;3141;49.234;9.326;2023-01-30T01:41:58;100310.56;;;2.99;70.42
6216;BME280;3141;49.234;9.326;2023-01-30T01:42:41;100304.59;;;3.11;70.45
6216;BME280;3141;49.234;9.326;2023-01-30T01:43:24;100301.25;;;2.95;70.54
6216;BME280;3141;49.234;9.326;2023-01-30T01:44:08;100310.66;;;2.97;70.67
6216;BME280;3141;49.234;9.326;2023-01-30T01:45:11;100306.38;;;2.96;70.35
6216;BME280;3141;49.234;9.326;2023-01-30T01:46:59;100311.97;;;3.18;70.19
6216;BME280;3141;49.234;9.326;2023-01-30T01:48:01;100300.69;;;3.04;70.13
6216;BME280;3141;49.234;9.326;2023-01-30T01:48:48;100305.63;;;3.08;70.81
6216;BME280;3141;49.234;9.326;2023-01-30T01:49:34;100299.97;;;3.02;70.96
6216;BME280;3141;49.234;9.326;2023-01-30T01:50:29;100306.50;;;3.09;70.71
6216;BME280;3141;49.234;9.326;2023-01-30T01:51:17;100296.28;;;2.90;70.83
6216;BME280;3141;49.234;9.326;2023-01-30T01:52:14;100296.41;;;2.89;71.04
6216;BME280;3141;49.234;9.326;2023-01-30T01:52:59;100298.25;;;3.15;70.08
6216;BME280;3141;49.234;9.326;2023-01-30T01:53:46;100293.13;;;3.13;70.60
6216;BME280;3141;49.234;9.326;2023-01-30T01:54:40;100285.97;;;3.03;70.29
6216;BME280;3141;49.234;9.326;2023-01-30T01:55:24;100287.44;;;2.93;70.69
6216;BME280;3141;49.234;9.326;2023-01-30T01:56:07;100285.59;;;2.81;71.50
6216;BME280;3141;49.234;9.326;2023-01-30T01:56:50;100286.44;;;2.81;71.58
6216;BME280;3141;49.234;9.326;2023-01-30T01:57:37;100287.56;;;3.05;71.27
6216;BME280;3141;49.234;9.326;2023-01-30T01:58:40;100286.50;;;3.22;69.98
6216;BME280;3141;49.234;9.326;2023-01-30T01:59:40;100298.25;;;3.01;70.02
6216;BME280;3141;49.234;9.326;2023-01-30T02:00:24;100288.22;;;2.95;71.24
6216;BME280;3141;49.234;9.326;2023-01-30T02:01:06;100284.28;;;3.02;70.73
6216;BME280;3141;49.234;9.326;2023-01-30T02:01:49;100281.59;;;3.03;70.71
6216;BME280;3141;49.234;9.326;2023-01-30T02:02:32;100273.28;;;2.97;71.24
6216;BME280;3141;49.234;9.326;2023-01-30T02:03:19;100276.63;;;3.13;70.29
6216;BME280;3141;49.234;9.326;2023-01-30T02:04:03;100284.00;;;3.20;70.10
6216;BME280;3141;49.234;9.326;2023-01-30T02:04:48;100279.22;;;3.13;70.16
6216;BME280;3141;49.234;9.326;2023-01-30T02:05:56;100276.41;;;3.16;69.50
6216;BME280;3141;49.234;9.326;2023-01-30T02:06:40;100275.09;;;3.23;69.60
6216;BME280;3141;49.234;9.326;2023-01-30T02:07:24;100264.09;;;3.18;69.91
6216;BME280;3141;49.234;9.326;2023-01-30T02:08:13;100253.22;;;3.11;69.97
6216;BME280;3141;49.234;9.326;2023-01-30T02:09:01;100250.78;;;3.08;69.96
6216;BME280;3141;49.234;9.326;2023-01-30T02:09:52;100254.84;;;3.26;69.94
6216;BME280;3141;49.234;9.326;2023-01-30T02:11:51;100256.66;;;3.26;69.55
6216;BME280;3141;49.234;9.326;2023-01-30T02:12:38;100254.56;;;3.45;68.96
6216;BME280;3141;49.234;9.326;2023-01-30T02:13:21;100264.50;;;3.26;69.45
6216;BME280;3141;49.234;9.326;2023-01-30T02:14:04;100257.56;;;3.25;69.07
6216;BME280;3141;49.234;9.326;2023-01-30T02:14:47;100256.00;;;3.08;69.28
6216;BME280;3141;49.234;9.326;2023-01-30T02:15:30;100252.75;;;3.05;70.04
6216;BME280;3141;49.234;9.326;2023-01-30T02:16:14;100254.25;;;3.09;70.05
6216;BME280;3141;49.234;9.326;2023-01-30T02:16:56;100253.41;;;3.08;69.47
6216;BME280;3141;49.234;9.326;2023-01-30T02:17:38;100255.25;;;3.20;69.07
6216;BME280;3141;49.234;9.326;2023-01-30T02:18:21;100257.84;;;3.34;68.99
6216;BME280;3141;49.234;9.326;2023-01-30T02:19:24;100246.91;;;3.28;68.69
6216;BME280;3141;49.234;9.326;2023-01-30T02:24:56;100236.16;;;3.46;68.15
6216;BME280;3141;49.234;9.326;2023-01-30T02:31:39;100252.78;;;3.72;67.62
6216;BME280;3141;49.234;9.326;2023-01-30T02:32:36;100258.31;;;3.68;67.61
6216;BME280;3141;49.234;9.326;2023-01-30T02:33:51;100259.16;;;3.68;67.38
6216;BME280;3141;49.234;9.326;2023-01-30T02:34:47;100254.19;;;3.78;67.17
6216;BME280;3141;49.234;9.326;2023-01-30T02:35:55;100257.56;;;3.92;66.95
6216;BME280;3141;49.234;9.326;2023-01-30T02:36:49;100264.88;;;3.61;67.32
6216;BME280;3141;49.234;9.326;2023-01-30T02:38:08;100255.06;;;3.64;67.33
6216;BME280;3141;49.234;9.326;2023-01-30T02:45:08;100233.59;;;3.59;68.00
6216;BME280;3141;49.234;9.326;2023-01-30T02:47:05;100232.63;;;3.74;67.52
6216;BME280;3141;49.234;9.326;2023-01-30T02:48:02;100230.19;;;3.71;67.26
6216;BME280;3141;49.234;9.326;2023-01-30T02:48:51;100224.31;;;3.68;67.07
6216;BME280;3141;49.234;9.326;2023-01-30T02:49:47;100222.69;;;3.79;67.49
6216;BME280;3141;49.234;9.326;2023-01-30T02:50:39;100218.16;;;3.69;67.27
6216;BME280;3141;49.234;9.326;2023-01-30T02:51:28;100213.25;;;3.77;67.34
6216;BME280;3141;49.234;9.326;2023-01-30T02:52:11;100216.72;;;3.77;67.58
6216;BME280;3141;49.234;9.326;2023-01-30T02:52:56;100214.31;;;3.74;67.46
6216;BME280;3141;49.234;9.326;2023-01-30T02:53:39;100216.41;;;3.69;67.19
6216;BME280;3141;49.234;9.326;2023-01-30T02:54:21;100200.78;;;3.68;67.39
6216;BME280;3141;49.234;9.326;2023-01-30T02:55:22;100205.00;;;3.70;67.17
6216;BME280;3141;49.234;9.326;2023-01-30T02:56:05;100199.97;;;3.67;67.22
6216;BME280;3141;49.234;9.326;2023-01-30T02:56:50;100204.84;;;3.59;68.09
6216;BME280;3141;49.234;9.326;2023-01-30T02:57:33;100200.19;;;3.77;67.21
6216;BME280;3141;49.234;9.326;2023-01-30T02:58:19;100194.47;;;3.84;67.16
6216;BME280;3141;49.234;9.326;2023-01-30T02:59:04;100191.38;;;3.92;66.46
6216;BME280;3141;49.234;9.326;2023-01-30T02:59:56;100190.81;;;3.87;67.08
6216;BME280;3141;49.234;9.326;2023-01-30T03:04:11;100180.22;;;3.76;67.19
6216;BME280;3141;49.234;9.326;2023-01-30T03:05:35;100177.34;;;3.66;67.12
6216;BME280;3141;49.234;9.326;2023-01-30T03:06:32;100164.94;;;3.70;67.01
6216;BME280;3141;49.234;9.326;2023-01-30T03:08:36;100165.44;;;3.62;67.30
6216;BME280;3141;49.234;9.326;2023-01-30T03:09:14;100138.84;;;3.43;68.04
6216;BME280;3141;49.234;9.326;2023-01-30T03:10:53;100139.91;;;3.53;67.86
6216;BME280;3141;49.234;9.326;2023-01-30T03:11:48;100138.56;;;3.60;67.94
6216;BME280;3141;49.234;9.326;2023-01-30T03:14:51;100137.59;;;3.48;68.51
6216;BME280;3141;49.234;9.326;2023-01-30T03:15:49;100150.19;;;3.69;67.45
6216;BME280;3141;49.234;9.326;2023-01-30T03:16:38;100148.06;;;3.61;67.21
6216;BME280;3141;49.234;9.326;2023-01-30T03:17:23;100154.28;;;3.73;67.12
6216;BME280;3141;49.234;9.326;2023-01-30T03:18:08;100161.69;;;3.66;67.44
6216;BME280;3141;49.234;9.326;2023-01-30T03:18:51;100160.38;;;3.46;67.72
6216;BME280;3141;49.234;9.326;2023-01-30T03:19:33;100174.38;;;3.45;68.73
6216;BME280;3141;49.234;9.326;2023-01-30T03:20:18;100172.59;;;3.46;68.04
6216;BME280;3141;49.234;9.326;2023-01-30T03:21:05;100177.03;;;3.58;67.87
6216;BME280;3141;49.234;9.326;2023-01-30T03:21:47;100188.28;;;3.46;68.11
6216;BME280;3141;49.234;9.326;2023-01-30T03:22:30;100198.16;;;3.55;67.57
6216;BME280;3141;49.234;9.326;2023-01-30T03:23:12;100188.66;;;3.67;66.99
6216;BME280;3141;49.234;9.326;2023-01-30T03:23:55;100193.25;;;3.63;67.32
6216;BME280;3141;49.234;9.326;2023-01-30T03:24:37;100183.81;;;3.48;66.99
6216;BME280;3141;49.234;9.326;2023-01-30T03:25:21;100179.25;;;3.64;67.32
6216;BME280;3141;49.234;9.326;2023-01-30T03:26:07;100175.44;;;3.55;67.19
6216;BME280;3141;49.234;9.326;2023-01-30T03:27:02;100173.78;;;3.54;67.32
6216;BME280;3141;49.234;9.326;2023-01-30T03:27:47;100170.84;;;3.59;66.63
6216;BME280;3141;49.234;9.326;2023-01-30T03:28:31;100173.41;;;3.73;66.88
6216;BME280;3141;49.234;9.326;2023-01-30T03:29:15;100172.13;;;3.66;66.81
6216;BME280;3141;49.234;9.326;2023-01-30T03:29:57;100173.63;;;3.70;66.36
6216;BME280;3141;49.234;9.326;2023-01-30T03:30:39;100177.63;;;3.76;66.52
6216;BME280;3141;49.234;9.326;2023-01-30T03:31:22;100181.88;;;3.77;66.56
6216;BME280;3141;49.234;9.326;2023-01-30T03:32:05;100184.94;;;3.83;66.26
6216;BME280;3141;49.234;9.326;2023-01-30T03:32:47;100186.03;;;3.93;65.97
6216;BME280;3141;49.234;9.326;2023-01-30T03:33:30;100189.31;;;3.70;66.16
6216;BME280;3141;49.234;9.326;2023-01-30T03:34:12;100185.34;;;3.77;66.41
6216;BME280;3141;49.234;9.326;2023-01-30T03:34:54;100187.00;;;3.78;66.13
6216;BME280;3141;49.234;9.326;2023-01-30T03:35:36;100194.38;;;3.86;66.14
6216;BME280;3141;49.234;9.326;2023-01-30T03:36:19;100193.63;;;3.84;65.97
6216;BME280;3141;49.234;9.326;2023-01-30T03:37:03;100197.28;;;3.81;66.23
6216;BME280;3141;49.234;9.326;2023-01-30T03:37:46;100194.38;;;3.86;66.12
6216;BME280;3141;49.234;9.326;2023-01-30T03:38:28;100193.25;;;3.90;65.96
6216;BME280;3141;49.234;9.326;2023-01-30T03:39:11;100186.56;;;3.98;65.44
6216;BME280;3141;49.234;9.326;2023-01-30T03:39:53;100192.63;;;4.11;65.26
6216;BME280;3141;49.234;9.326;2023-01-30T03:40:36;100194.19;;;4.01;65.16
6216;BME280;3141;49.234;9.326;2023-01-30T03:41:18;100195.03;;;4.02;65.28
6216;BME280;3141;49.234;9.326;2023-01-30T03:42:01;100197.34;;;4.06;65.08
6216;BME280;3141;49.234;9.326;2023-01-30T03:42:43;100201.72;;;3.93;65.38
6216;BME280;3141;49.234;9.326;2023-01-30T03:43:25;100193.78;;;4.07;64.76
6216;BME280;3141;49.234;9.326;2023-01-30T03:44:08;100201.44;;;4.10;64.61
6216;BME280;3141;49.234;9.326;2023-01-30T03:44:50;100196.50;;;4.06;64.74
6216;BME280;3141;49.234;9.326;2023-01-30T03:45:32;100193.16;;;4.04;64.96
6216;BME280;3141;49.234;9.326;2023-01-30T03:46:14;100201.94;;;4.03;64.71
6216;BME280;3141;49.234;9.326;2023-01-30T03:46:57;100206.50;;;3.87;65.16
6216;BME280;3141;49.234;9.326;2023-01-30T03:47:39;100201.56;;;3.82;65.13
6216;BME280;3141;49.234;9.326;2023-01-30T03:48:21;100206.00;;;3.94;65.07
6216;BME280;3141;49.234;9.326;2023-01-30T03:49:04;100211.44;;;3.91;65.23
6216;BME280;3141;49.234;9.326;2023-01-30T03:49:46;100204.94;;;3.84;66.23
6216;BME280;3141;49.234;9.326;2023-01-30T03:50:28;100202.31;;;3.84;65.76
6216;BME280;3141;49.234;9.326;2023-01-30T03:51:11;100210.50;;;3.92;65.79
6216;BME280;3141;49.234;9.326;2023-01-30T03:51:53;100205.03;;;3.95;65.54
6216;BME280;3141;49.234;9.326;2023-01-30T03:52:35;100202.25;;;3.98;65.94
6216;BME280;3141;49.234;9.326;2023-01-30T03:53:18;100202.75;;;3.91;65.76
6216;BME280;3141;49.234;9.326;2023-01-30T03:54:00;100203.97;;;3.85;65.78
6216;BME280;3141;49.234;9.326;2023-01-30T03:54:42;100205.69;;;3.86;66.30
6216;BME280;3141;49.234;9.326;2023-01-30T03:55:25;100201.88;;;3.78;66.11
6216;BME280;3141;49.234;9.326;2023-01-30T03:56:07;100197.00;;;3.59;66.83
6216;BME280;3141;49.234;9.326;2023-01-30T03:56:49;100209.16;;;3.60;67.09
6216;BME280;3141;49.234;9.326;2023-01-30T03:57:32;100202.22;;;3.59;66.62
6216;BME280;3141;49.234;9.326;2023-01-30T03:58:14;100204.78;;;3.73;66.50
6216;BME280;3141;49.234;9.326;2023-01-30T03:58:56;100201.84;;;3.65;66.26
6216;BME280;3141;49.234;9.326;2023-01-30T03:59:39;100198.28;;;3.66;66.79
6216;BME280;3141;49.234;9.326;2023-01-30T04:00:21;100205.84;;;3.71;67.04
6216;BME280;3141;49.234;9.326;2023-01-30T04:01:04;100211.44;;;3.65;67.11
6216;BME280;3141;49.234;9.326;2023-01-30T04:01:46;100213.94;;;3.53;67.22
6216;BME280;3141;49.234;9.326;2023-01-30T04:02:29;100206.38;;;3.49;67.59
6216;BME280;3141;49.234;9.326;2023-01-30T04:03:11;100207.84;;;3.53;68.14
6216;BME280;3141;49.234;9.326;2023-01-30T04:03:53;100199.22;;;3.38;67.94
6216;BME280;3141;49.234;9.326;2023-01-30T04:04:35;100196.69;;;3.37;68.31
6216;BME280;3141;49.234;9.326;2023-01-30T04:05:18;100196.69;;;3.37;68.66
6216;BME280;3141;49.234;9.326;2023-01-30T04:06:00;100207.16;;;3.37;68.85
6216;BME280;3141;49.234;9.326;2023-01-30T04:06:42;100212.38;;;3.37;69.22
6216;BME280;3141;49.234;9.326;2023-01-30T04:07:27;100211.38;;;3.39;69.17
6216;BME280;3141;49.234;9.326;2023-01-30T04:08:10;100214.78;;;3.40;69.69
6216;BME280;3141;49.234;9.326;2023-01-30T04:08:52;100215.94;;;3.36;69.16
6216;BME280;3141;49.234;9.326;2023-01-30T04:09:35;100215.56;;;3.28;69.67
6216;BME280;3141;49.234;9.326;2023-01-30T04:10:17;100211.25;;;3.41;69.55
6216;BME280;3141;49.234;9.326;2023-01-30T04:11:01;100208.44;;;3.44;69.75
6216;BME280;3141;49.234;9.326;2023-01-30T04:11:43;100210.63;;;3.37;70.05
6216;BME280;3141;49.234;9.326;2023-01-30T04:12:25;100206.59;;;3.32;70.46
6216;BME280;3141;49.234;9.326;2023-01-30T04:13:07;100206.16;;;3.25;70.95
6216;BME280;3141;49.234;9.326;2023-01-30T04:13:50;100208.47;;;3.30;71.13
6216;BME280;3141;49.234;9.326;2023-01-30T04:14:32;100211.50;;;3.24;71.04
6216;BME280;3141;49.234;9.326;2023-01-30T04:15:14;100211.13;;;3.16;71.63
6216;BME280;3141;49.234;9.326;2023-01-30T04:16:59;100210.75;;;3.22;72.32
6216;BME280;3141;49.234;9.326;2023-01-30T04:17:42;100203.47;;;3.13;72.63
6216;BME280;3141;49.234;9.326;2023-01-30T04:18:25;100201.63;;;3.15;73.28
6216;BME280;3141;49.234;9.326;2023-01-30T04:19:07;100207.59;;;3.17;72.99
6216;BME280;3141;49.234;9.326;2023-01-30T04:19:49;100202.38;;;3.17;73.03
6216;BME280;3141;49.234;9.326;2023-01-30T04:20:32;100206.84;;;3.15;73.98
6216;BME280;3141;49.234;9.326;2023-01-30T04:21:15;100210.97;;;3.05;74.76
6216;BME280;3141;49.234;9.326;2023-01-30T04:21:57;100218.91;;;3.03;74.83
6216;BME280;3141;49.234;9.326;2023-01-30T04:22:39;100217.16;;;2.90;75.92
6216;BME280;3141;49.234;9.326;2023-01-30T04:23:22;100214.25;;;2.94;75.74
6216;BME280;3141;49.234;9.326;2023-01-30T04:24:04;100218.25;;;3.00;75.67
6216;BME280;3141;49.234;9.326;2023-01-30T04:24:47;100197.81;;;3.06;75.90
6216;BME280;3141;49.234;9.326;2023-01-30T04:25:29;100214.59;;;3.02;75.69
6216;BME280;3141;49.234;9.326;2023-01-30T04:26:11;100207.63;;;2.89;76.13
6216;BME280;3141;49.234;9.326;2023-01-30T04:26:54;100206.84;;;3.01;77.15
6216;BME280;3141;49.234;9.326;2023-01-30T04:27:37;100213.38;;;3.08;76.92
6216;BME280;3141;49.234;9.326;2023-01-30T04:28:19;100209.91;;;3.07;76.17
6216;BME280;3141;49.234;9.326;2023-01-30T04:29:01;100202.56;;;3.14;76.37
6216;BME280;3141;49.234;9.326;2023-01-30T04:29:44;100203.69;;;3.10;76.04
6216;BME280;3141;49.234;9.326;2023-01-30T04:30:26;100199.22;;;2.98;76.75
6216;BME280;3141;49.234;9.326;2023-01-30T04:31:09;100201.38;;;3.05;76.95
6216;BME280;3141;49.234;9.326;2023-01-30T04:31:52;100203.47;;;3.13;77.21
6216;BME280;3141;49.234;9.326;2023-01-30T04:32:34;100203.47;;;3.13;77.05
6216;BME280;3141;49.234;9.326;2023-01-30T04:33:17;100201.03;;;3.24;76.69
6216;BME280;3141;49.234;9.326;2023-01-30T04:33:59;100203.78;;;3.35;76.61